createdAt,value
2022-09-11T10:15:53.848Z,40.01
2022-09-11T10:16:53.721Z,48.08
2022-09-11T10:17:53.687Z,53.47
2022-09-11T10:18:53.679Z,57.42
2022-09-11T10:19:53.663Z,45.59
2022-09-11T10:20:53.636Z,58.57
2022-09-11T10:21:53.630Z,54.05
2022-09-11T10:22:53.626Z,58.67
2022-09-11T10:23:53.591Z,54.41
2022-09-11T10:24:53.576Z,54.12
2022-09-11T10:26:55.338Z,57.39
2022-09-11T10:27:55.334Z,53.83
2022-09-11T10:28:55.293Z,54.41
2022-09-11T10:29:55.289Z,53.13
2022-09-11T10:33:36.840Z,44.41
2022-09-11T10:34:36.821Z,49.02
2022-09-11T10:35:36.796Z,49.79
2022-09-11T10:36:36.779Z,49.63
2022-09-11T10:37:36.786Z,51.84
2022-09-11T10:38:41.136Z,54.46
2022-09-11T10:39:36.782Z,69.67
2022-09-11T10:40:36.717Z,77.65
2022-09-11T10:41:36.713Z,73.22
2022-09-11T10:42:36.709Z,72.94
2022-09-11T10:43:36.685Z,71.69
2022-09-11T10:44:36.668Z,76.69
2022-09-11T10:45:36.662Z,74.44
2022-09-11T10:46:37.496Z,73.86
2022-09-11T10:47:36.629Z,76.26
2022-09-11T10:48:53.416Z,67.42
2022-09-11T11:05:09.534Z,87.51
2022-09-11T11:06:47.719Z,97.33
2022-09-11T11:07:47.712Z,97.04
2022-09-11T11:08:47.717Z,94.54
2022-09-11T11:13:17.282Z,99.59
2022-09-11T11:14:17.244Z,99.99
2022-09-11T11:15:17.229Z,99.78
2022-09-11T11:16:17.246Z,99.99
2022-09-11T11:17:17.198Z,99.99
2022-09-11T11:18:17.198Z,99.99
2022-09-11T11:19:17.168Z,99.99
2022-09-11T11:20:17.161Z,99.99
2022-09-11T11:21:17.148Z,99.99
2022-09-11T11:30:23.700Z,99.99
2022-09-11T11:31:23.739Z,99.99
2022-09-11T11:32:23.649Z,99.99
2022-09-11T11:33:23.644Z,99.99
2022-09-11T11:34:23.625Z,99.99
2022-09-11T11:35:23.604Z,99.99
2022-09-11T11:36:23.588Z,99.99
2022-09-11T11:38:42.117Z,99.99
2022-09-11T11:39:42.066Z,99.99
2022-09-11T11:40:42.000Z,99.99
2022-09-11T11:41:41.997Z,99.99
2022-09-11T11:42:41.979Z,99.99
2022-09-11T11:43:41.969Z,99.99
2022-09-11T11:44:41.953Z,99.99
2022-09-11T11:45:41.959Z,99.99
2022-09-11T11:46:41.913Z,99.99
2022-09-11T11:47:41.924Z,99.99
2022-09-11T11:48:41.928Z,99.99
2022-09-11T11:49:41.875Z,99.99
2022-09-11T11:50:49.737Z,99.99
2022-09-11T11:51:41.845Z,99.99
2022-09-11T11:52:41.836Z,99.99
2022-09-11T11:53:41.833Z,99.99
2022-09-11T11:54:41.807Z,99.99
2022-09-11T11:55:41.788Z,99.99
2022-09-11T11:56:41.782Z,99.99
2022-09-11T11:57:41.761Z,99.99
2022-09-11T11:58:41.814Z,99.99
2022-09-11T11:59:41.745Z,99.99
2022-09-11T12:00:41.723Z,99.99
2022-09-11T12:01:41.778Z,99.99
2022-09-11T12:02:41.703Z,99.99
2022-09-11T12:03:41.735Z,99.99
2022-09-11T12:04:41.678Z,99.99
2022-09-11T12:05:41.652Z,99.99
2022-09-11T12:06:41.648Z,99.99
2022-09-11T12:07:41.628Z,99.99
2022-09-11T12:08:41.734Z,99.99
2022-09-11T12:09:41.610Z,99.99
2022-09-11T12:10:41.606Z,99.99
2022-09-11T12:11:41.577Z,99.99
2022-09-11T12:12:41.558Z,99.99
2022-09-11T12:13:41.555Z,99.99
2022-09-11T12:14:41.546Z,99.99
2022-09-11T12:15:41.529Z,99.99
2022-09-11T12:16:41.514Z,99.99
2022-09-11T12:17:41.495Z,99.99
2022-09-11T12:18:41.566Z,99.99
2022-09-11T12:19:41.467Z,99.99
2022-09-11T12:20:41.455Z,99.99
2022-09-11T12:21:41.442Z,99.99
2022-09-11T12:22:41.435Z,99.99
2022-09-11T12:23:41.428Z,99.99
2022-09-11T12:24:41.412Z,99.99
2022-09-11T12:28:15.898Z,99.99
2022-09-11T12:29:15.878Z,99.99
2022-09-11T12:30:15.871Z,99.99
2022-09-11T12:31:15.910Z,99.99
2022-09-11T12:32:15.846Z,99.99
2022-09-11T12:33:15.837Z,99.99
2022-09-11T12:34:15.819Z,99.99
2022-09-11T12:35:15.798Z,99.99
2022-09-11T12:36:15.795Z,99.99
2022-09-11T12:37:15.778Z,99.99
2022-09-11T12:38:15.784Z,99.99
2022-09-11T12:39:15.783Z,99.99
2022-09-11T12:40:15.769Z,99.99
2022-09-11T12:41:15.731Z,99.99
2022-09-11T12:42:15.727Z,99.99
2022-09-11T12:43:15.722Z,99.99
2022-09-11T12:44:15.685Z,99.99
2022-09-11T12:45:15.683Z,99.99
2022-09-11T12:46:15.662Z,99.99
2022-09-11T12:47:15.661Z,99.99
2022-09-11T12:48:15.662Z,99.99
2022-09-11T12:49:22.587Z,99.99
2022-09-11T12:50:15.612Z,99.99
2022-09-11T12:51:15.612Z,99.99
2022-09-11T12:52:15.598Z,99.99
2022-09-11T12:53:15.589Z,99.99
2022-09-11T12:54:15.574Z,99.99
2022-09-11T12:55:15.552Z,99.99
2022-09-11T12:57:04.928Z,99.99
2022-09-11T12:58:04.926Z,99.99
2022-09-11T12:59:04.888Z,99.99
2022-09-11T13:00:04.875Z,99.99
2022-09-11T13:01:04.908Z,99.99
2022-09-11T13:02:04.903Z,99.99
2022-09-11T13:03:04.858Z,99.99
2022-09-11T13:04:04.837Z,99.99
2022-09-11T13:05:04.814Z,99.99
2022-09-11T13:06:04.814Z,99.99
2022-09-11T13:07:04.801Z,99.99
2022-09-11T13:08:04.803Z,99.99
2022-09-11T13:09:04.777Z,99.99
2022-09-11T13:10:04.768Z,99.99
2022-09-11T13:11:04.755Z,99.99
2022-09-11T13:12:04.746Z,99.99
2022-09-11T13:13:04.736Z,99.99
2022-09-11T13:14:04.715Z,99.99
2022-09-11T13:15:04.711Z,99.99
2022-09-11T13:16:04.737Z,99.99
2022-09-11T13:17:04.689Z,99.99
2022-09-11T13:18:04.694Z,99.99
2022-09-11T13:19:04.669Z,99.99
2022-09-11T13:20:04.660Z,99.99
2022-09-11T13:21:04.641Z,99.99
2022-09-11T13:22:04.671Z,99.99
2022-09-11T13:23:04.643Z,99.99
2022-09-11T13:24:04.617Z,99.99
2022-09-11T13:25:04.599Z,99.99
2022-09-11T13:26:04.587Z,99.99
2022-09-11T13:27:04.585Z,99.99
2022-09-11T13:28:04.577Z,99.99
2022-09-11T13:29:04.564Z,99.99
2022-09-11T13:30:04.556Z,99.99
2022-09-11T13:31:04.585Z,99.99
2022-09-11T13:32:04.524Z,99.99
2022-09-11T13:33:04.531Z,99.99
2022-09-11T13:34:04.518Z,99.99
2022-09-11T13:35:04.502Z,99.99
2022-09-11T13:36:04.490Z,99.99
2022-09-11T13:37:04.472Z,99.99
2022-09-11T13:38:04.487Z,99.99
2022-09-11T13:39:04.466Z,99.99
2022-09-11T13:40:04.520Z,99.99
2022-09-11T13:41:04.438Z,99.99
2022-09-11T13:42:04.422Z,99.99
2022-09-11T13:43:04.432Z,99.99
2022-09-11T13:44:04.408Z,99.99
2022-09-11T13:45:04.402Z,99.99
2022-09-11T13:46:04.446Z,99.99
2022-09-11T13:47:04.372Z,99.99
2022-09-11T13:48:04.376Z,99.99
2022-09-11T13:49:04.354Z,99.99
2022-09-11T13:50:04.353Z,99.99
2022-09-11T13:51:04.335Z,99.99
2022-09-11T13:52:04.333Z,99.99
2022-09-11T13:53:04.327Z,99.80
2022-09-11T13:54:04.312Z,97.71
2022-09-11T13:55:04.306Z,95.09
2022-09-11T13:56:04.288Z,95.33
2022-09-11T13:57:04.292Z,95.04
2022-09-11T13:58:04.296Z,96.59
2022-09-11T13:59:04.271Z,95.92
2022-09-11T14:00:04.250Z,97.33
2022-09-11T14:01:04.252Z,99.99
2022-09-11T14:02:04.398Z,99.99
2022-09-11T14:03:04.236Z,99.99
2022-09-11T14:04:04.214Z,99.99
2022-09-11T14:05:04.207Z,99.99
2022-09-11T14:06:04.212Z,99.99
2022-09-11T14:07:04.197Z,99.41
2022-09-11T14:08:04.192Z,98.58
2022-09-11T14:09:04.180Z,99.99
2022-09-11T14:10:04.177Z,98.49
2022-09-11T14:11:07.100Z,95.97
2022-09-11T14:12:04.146Z,95.91
2022-09-11T14:13:04.169Z,95.67
2022-09-11T14:14:04.128Z,96.40
2022-09-11T14:15:04.118Z,98.78
2022-09-11T14:16:04.167Z,98.25
2022-09-11T14:17:04.111Z,98.25
2022-09-11T14:18:04.106Z,99.99
2022-09-11T14:19:04.095Z,99.99
2022-09-11T14:20:04.091Z,99.99
2022-09-11T14:21:04.070Z,99.99
2022-09-11T14:22:04.064Z,99.70
2022-09-11T14:23:04.069Z,96.89
2022-09-11T14:24:04.047Z,97.37
2022-09-11T14:25:04.042Z,97.96
2022-09-11T14:26:04.041Z,99.99
2022-09-11T14:27:04.026Z,98.63
2022-09-11T14:28:04.015Z,98.49
2022-09-11T14:29:04.029Z,99.80
2022-09-11T14:30:04.012Z,99.99
2022-09-11T14:31:04.029Z,99.99
2022-09-11T14:32:03.997Z,99.99
2022-09-11T14:33:03.979Z,99.99
2022-09-11T14:34:03.980Z,99.99
2022-09-11T14:35:03.961Z,99.99
2022-09-11T14:36:07.584Z,99.99
2022-09-11T14:37:03.944Z,99.99
2022-09-11T14:38:03.960Z,99.99
2022-09-11T14:39:03.932Z,99.99
2022-09-11T14:40:03.945Z,99.32
2022-09-11T14:41:03.922Z,95.33
2022-09-11T14:42:03.912Z,94.60
2022-09-11T14:43:03.895Z,91.73
2022-09-11T14:44:03.899Z,92.21
2022-09-11T14:45:03.889Z,91.19
2022-09-11T14:46:03.893Z,92.22
2022-09-11T14:47:03.863Z,97.56
2022-09-11T14:48:03.877Z,98.58
2022-09-11T14:49:03.845Z,99.99
2022-09-11T14:50:03.840Z,99.99
2022-09-11T14:51:03.832Z,99.99
2022-09-11T14:52:03.824Z,99.99
2022-09-11T14:53:03.822Z,99.99
2022-09-11T14:54:03.828Z,99.99
2022-09-11T14:55:03.799Z,99.99
2022-09-11T14:56:03.792Z,99.99
2022-09-11T14:59:26.917Z,99.99
2022-09-11T15:00:26.890Z,99.99
2022-09-11T15:01:26.954Z,99.99
2022-09-11T15:04:55.374Z,99.99
2022-09-11T15:05:55.342Z,99.99
2022-09-11T15:06:55.379Z,99.99
2022-09-11T15:07:55.337Z,99.99
2022-09-11T15:08:55.336Z,99.99
2022-09-11T15:09:55.315Z,99.99
2022-09-11T15:10:55.305Z,99.99
2022-09-11T15:11:55.286Z,99.99
2022-09-11T15:30:21.186Z,99.99
2022-09-11T16:17:46.942Z,99.99
2022-09-11T16:18:46.916Z,99.99
2022-09-11T16:19:46.926Z,99.99
2022-09-11T16:20:46.887Z,99.99
2022-09-11T16:21:46.876Z,99.99
2022-09-11T16:22:46.857Z,99.99
2022-09-11T16:23:51.138Z,99.99
